createdAt,value
2022-11-01T00:01:25.849Z,12.96
2022-11-01T00:06:28.623Z,13.05
2022-11-01T00:11:31.410Z,13.34
2022-11-01T00:16:35.436Z,13.39
2022-11-01T00:21:38.364Z,13.15
2022-11-01T00:26:41.253Z,12.79
2022-11-01T00:31:45.383Z,12.09
2022-11-01T00:36:48.124Z,13.05
2022-11-01T00:41:50.752Z,13.12
2022-11-01T00:46:54.831Z,11.38
2022-11-01T00:51:57.404Z,11.95
2022-11-01T00:56:59.997Z,12.11
2022-11-01T01:02:04.094Z,11.74
2022-11-01T01:07:06.773Z,12.07
2022-11-01T01:12:09.368Z,12.25
2022-11-01T01:17:13.457Z,12.66
2022-11-01T01:22:16.109Z,12.83
2022-11-01T01:27:19.252Z,12.84
2022-11-01T01:32:24.854Z,12.71
2022-11-01T01:37:27.525Z,12.72
2022-11-01T01:42:31.773Z,12.68
2022-11-01T01:47:37.772Z,12.77
2022-11-01T01:52:45.042Z,12.72
2022-11-01T01:57:48.176Z,12.68
2022-11-01T02:02:52.352Z,12.59
2022-11-01T02:07:57.080Z,12.69
2022-11-01T02:12:59.875Z,11.45
2022-11-01T02:18:12.714Z,11.97
2022-11-01T02:23:55.638Z,12.01
2022-11-01T02:29:14.423Z,11.73
2022-11-01T02:34:25.146Z,11.76
2022-11-01T02:39:31.670Z,12.24
2022-11-01T02:44:38.387Z,11.39
2022-11-01T02:49:46.509Z,10.23
2022-11-01T02:54:53.429Z,9.79
2022-11-01T03:00:02.981Z,10.46
2022-11-01T03:05:11.423Z,9.78
2022-11-01T03:10:14.598Z,10.27
2022-11-01T03:15:23.304Z,10.09
2022-11-01T03:20:47.401Z,10.89
2022-11-01T03:25:55.409Z,11.65
2022-11-01T03:31:03.545Z,11.50
2022-11-01T03:36:14.495Z,10.49
2022-11-01T03:41:19.368Z,10.86
2022-11-01T03:46:22.308Z,10.34
2022-11-01T03:51:26.248Z,10.89
2022-11-01T03:56:28.848Z,11.19
2022-11-01T04:01:31.635Z,11.87
2022-11-01T04:06:35.745Z,11.54
2022-11-01T04:11:38.365Z,12.42
2022-11-01T04:16:58.457Z,11.89
2022-11-01T04:22:04.196Z,12.25
2022-11-01T04:27:06.919Z,12.18
2022-11-01T04:32:09.515Z,11.75
2022-11-01T04:37:14.116Z,11.73
2022-11-01T04:42:16.670Z,12.18
2022-11-01T04:47:19.378Z,12.28
2022-11-01T04:52:23.976Z,12.29
2022-11-01T04:57:26.578Z,12.64
2022-11-01T05:02:31.188Z,12.52
2022-11-01T05:07:35.369Z,11.84
2022-11-01T05:12:38.511Z,12.40
2022-11-01T05:17:42.777Z,12.65
2022-11-01T05:22:46.706Z,12.13
2022-11-01T05:27:49.274Z,12.80
2022-11-01T05:32:56.998Z,13.23
2022-11-01T05:38:02.688Z,12.54
2022-11-01T05:43:06.651Z,12.58
2022-11-01T05:48:09.337Z,12.97
2022-11-01T05:53:13.547Z,13.13
2022-11-01T05:58:16.199Z,13.32
2022-11-01T06:03:18.882Z,13.02
2022-11-01T06:08:22.855Z,13.16
2022-11-01T06:13:25.394Z,13.36
2022-11-01T06:18:28.058Z,12.55
2022-11-01T06:23:32.054Z,13.19
2022-11-01T06:28:34.855Z,13.37
2022-11-01T06:33:37.459Z,13.61
2022-11-01T06:38:41.439Z,13.51
2022-11-01T06:43:44.118Z,13.46
2022-11-01T06:48:48.895Z,13.81
2022-11-01T06:53:52.809Z,13.58
2022-11-01T06:58:55.447Z,13.77
2022-11-01T07:03:58.128Z,14.22
2022-11-01T07:09:02.454Z,14.20
2022-11-01T07:14:05.283Z,13.93
2022-11-01T07:19:07.958Z,14.05
2022-11-01T07:24:11.933Z,14.56
2022-11-01T07:29:14.537Z,14.53
2022-11-01T07:34:17.284Z,14.48
2022-11-01T07:39:23.893Z,14.66
2022-11-01T07:44:33.778Z,15.32
2022-11-01T07:49:44.416Z,14.99
2022-11-01T07:54:51.547Z,15.57
2022-11-01T07:59:54.257Z,15.85
2022-11-01T08:04:56.991Z,15.83
2022-11-01T08:10:00.994Z,15.88
2022-11-01T08:15:03.785Z,16.47
2022-11-01T08:20:07.615Z,16.12
2022-11-01T08:25:11.889Z,16.34
2022-11-01T08:30:14.706Z,16.78
2022-11-01T08:35:20.441Z,17.10
2022-11-01T08:40:24.707Z,17.47
2022-11-01T08:45:27.791Z,18.05
2022-11-01T08:50:49.162Z,18.22
2022-11-01T08:56:00.456Z,18.46
2022-11-01T09:01:19.585Z,18.85
2022-11-01T09:06:24.595Z,18.88
2022-11-01T09:11:35.604Z,18.52
2022-11-01T09:16:38.315Z,18.56
2022-11-01T09:21:41.137Z,18.65
2022-11-01T09:26:45.593Z,18.31
2022-11-01T09:31:56.175Z,18.60
2022-11-01T09:36:58.883Z,18.11
2022-11-01T09:42:32.123Z,18.10
2022-11-01T09:48:25.877Z,18.14
2022-11-01T09:53:45.393Z,17.83
2022-11-01T09:59:47.685Z,17.83
2022-11-01T10:05:55.330Z,17.88
2022-11-01T10:11:27.233Z,18.64
2022-11-01T10:16:53.448Z,18.08
2022-11-01T10:22:08.819Z,17.88
2022-11-01T10:27:19.790Z,18.35
2022-11-01T10:32:44.008Z,18.45
2022-11-01T10:38:04.356Z,18.44
2022-11-01T10:43:25.020Z,18.57
2022-11-01T10:48:33.774Z,19.01
2022-11-01T10:53:42.227Z,18.20
2022-11-01T10:58:50.778Z,18.02
2022-11-01T11:03:55.456Z,17.97
2022-11-01T11:08:59.450Z,18.69
2022-11-01T11:14:06.997Z,18.94
2022-11-01T11:19:19.606Z,19.04
2022-11-01T11:24:24.667Z,19.45
2022-11-01T11:29:38.892Z,19.10
2022-11-01T11:34:42.243Z,19.14
2022-11-01T11:40:03.453Z,19.88
2022-11-01T11:45:18.677Z,20.27
2022-11-01T11:50:32.764Z,20.20
2022-11-01T11:55:42.150Z,20.13
2022-11-01T12:00:50.038Z,20.94
2022-11-01T12:05:59.826Z,20.09
2022-11-01T12:11:04.620Z,19.86
2022-11-01T12:16:17.125Z,20.18
2022-11-01T12:21:22.872Z,21.24
2022-11-01T12:26:29.077Z,20.37
2022-11-01T12:31:33.134Z,20.78
2022-11-01T12:36:43.675Z,20.22
2022-11-01T12:41:51.321Z,21.01
2022-11-01T12:46:58.880Z,22.17
2022-11-01T12:52:08.175Z,21.42
2022-11-01T12:57:16.077Z,23.04
2022-11-01T13:02:39.120Z,23.44
2022-11-01T13:07:54.108Z,22.07
2022-11-01T13:13:07.028Z,21.32
2022-11-01T13:18:19.975Z,21.85
2022-11-01T13:23:30.384Z,22.32
2022-11-01T13:28:49.968Z,22.89
2022-11-01T13:34:04.995Z,24.24
2022-11-01T13:39:20.579Z,24.21
2022-11-01T13:44:26.461Z,23.86
2022-11-01T13:50:19.640Z,22.84
2022-11-01T13:55:29.195Z,23.13
2022-11-01T14:00:41.462Z,21.28
2022-11-01T14:05:46.230Z,21.90
2022-11-01T14:10:52.080Z,24.82
2022-11-01T14:16:20.415Z,25.76
2022-11-01T14:21:31.390Z,26.52
2022-11-01T14:27:03.367Z,24.97
2022-11-01T14:32:07.074Z,24.31
2022-11-01T14:37:18.604Z,22.61
2022-11-01T14:42:27.410Z,22.27
2022-11-01T14:47:36.628Z,21.20
2022-11-01T14:52:42.563Z,20.49
2022-11-01T14:57:48.520Z,20.28
2022-11-01T15:02:51.962Z,19.75
2022-11-01T15:07:56.609Z,18.92
2022-11-01T15:13:03.288Z,18.67
2022-11-01T15:18:14.230Z,19.15
2022-11-01T15:23:20.871Z,18.44
2022-11-01T15:28:27.169Z,17.90
2022-11-01T15:33:31.616Z,17.12
2022-11-01T15:38:36.104Z,16.88
2022-11-01T15:43:40.368Z,15.98
2022-11-01T15:48:42.879Z,15.12
2022-11-01T15:53:45.660Z,15.56
2022-11-01T15:58:53.693Z,15.44
2022-11-01T16:04:01.237Z,15.54
2022-11-01T16:09:08.969Z,15.39
2022-11-01T16:14:23.992Z,15.21
2022-11-01T16:19:37.066Z,15.14
2022-11-01T16:24:39.819Z,14.80
2022-11-01T16:29:51.020Z,14.80
2022-11-01T16:34:55.304Z,13.82
2022-11-01T16:39:59.018Z,13.75
2022-11-01T16:45:02.985Z,13.36
2022-11-01T16:50:06.320Z,14.31
2022-11-01T16:55:11.202Z,14.30
2022-11-01T17:00:16.671Z,13.72
2022-11-01T17:05:23.540Z,13.14
2022-11-01T17:10:26.700Z,12.37
2022-11-01T17:15:36.123Z,12.57
2022-11-01T17:20:41.195Z,12.79
2022-11-01T17:25:47.505Z,12.48
2022-11-01T17:30:52.108Z,12.79
2022-11-01T17:35:54.755Z,13.17
2022-11-01T17:40:57.870Z,13.71
2022-11-01T17:46:02.602Z,13.31
2022-11-01T17:51:05.419Z,13.20
2022-11-01T17:56:08.402Z,11.58
2022-11-01T18:01:13.280Z,10.96
2022-11-01T18:06:16.244Z,11.31
2022-11-01T18:11:35.102Z,11.29
2022-11-01T18:16:46.815Z,10.40
2022-11-01T18:21:57.232Z,10.14
2022-11-01T18:26:59.952Z,10.14
2022-11-01T18:32:10.537Z,10.17
2022-11-01T18:37:22.673Z,10.41
2022-11-01T18:42:26.467Z,10.43
2022-11-01T18:47:35.770Z,10.67
2022-11-01T18:52:38.417Z,10.64
2022-11-01T18:57:41.108Z,10.21
2022-11-01T19:02:44.997Z,10.64
2022-11-01T19:13:24.298Z,10.76
2022-11-01T19:18:28.563Z,10.37
2022-11-01T19:23:37.299Z,10.69
2022-11-01T19:28:40.522Z,10.99
2022-11-01T19:33:48.106Z,11.50
2022-11-01T19:38:50.859Z,11.89
2022-11-01T19:43:54.952Z,11.70
2022-11-01T19:48:59.689Z,11.84
2022-11-01T19:54:02.226Z,11.60
2022-11-01T19:59:13.055Z,11.65
2022-11-01T20:04:27.399Z,11.44
2022-11-01T20:09:35.492Z,11.60
2022-11-01T20:14:39.050Z,11.61
2022-11-01T20:19:43.635Z,11.17
2022-11-01T20:24:47.147Z,11.07
2022-11-01T20:29:49.918Z,10.72
2022-11-01T20:34:53.830Z,11.03
2022-11-01T20:39:56.377Z,11.36
2022-11-01T20:44:59.119Z,11.37
2022-11-01T20:50:04.834Z,11.34
2022-11-01T20:55:09.531Z,11.72
2022-11-01T21:00:14.439Z,11.76
2022-11-01T21:05:23.800Z,11.89
2022-11-01T21:10:34.153Z,11.51
2022-11-01T21:15:38.919Z,11.55
2022-11-01T21:20:46.213Z,11.14
2022-11-01T21:25:49.842Z,11.55
2022-11-01T21:30:53.717Z,11.60
2022-11-01T21:35:57.699Z,11.54
2022-11-01T21:41:00.433Z,10.76
2022-11-01T21:46:02.989Z,10.32
2022-11-01T21:51:07.508Z,11.32
2022-11-01T21:56:10.125Z,11.38
2022-11-01T22:01:13.837Z,11.43
2022-11-01T22:06:18.087Z,11.10
2022-11-01T22:11:23.643Z,10.60
2022-11-01T22:16:26.465Z,10.05
2022-11-01T22:21:31.111Z,9.22
2022-11-01T22:26:33.976Z,9.87
2022-11-01T22:31:36.578Z,9.70
2022-11-01T22:36:42.547Z,9.79
2022-11-01T22:41:45.409Z,9.56
2022-11-01T22:46:55.181Z,8.98
2022-11-01T22:52:05.146Z,9.62
2022-11-01T22:57:16.152Z,9.84
2022-11-01T23:02:26.981Z,9.84
2022-11-01T23:07:34.189Z,9.62
2022-11-01T23:12:55.376Z,9.57
2022-11-01T23:18:03.555Z,10.43
2022-11-01T23:23:18.927Z,10.60
2022-11-01T23:28:21.985Z,11.10
2022-11-01T23:33:33.709Z,10.82
2022-11-01T23:38:41.806Z,10.80
2022-11-01T23:43:44.446Z,10.62
2022-11-01T23:48:47.296Z,10.71
2022-11-01T23:53:53.912Z,10.47
2022-11-01T23:59:00.577Z,10.85
